sensor_id;sensor_type;location;lat;lon;timestamp;P1;durP1;ratioP1;P2;durP2;ratioP2
65753;SDS011;69207;47.502;18.940;2023-09-08T00:00:15;5.10;;;3.65;;
65753;SDS011;69207;47.502;18.940;2023-09-08T00:01:19;6.47;;;3.47;;
65753;SDS011;69207;47.502;18.940;2023-09-08T00:02:25;5.82;;;3.65;;
65753;SDS011;69207;47.502;18.940;2023-09-08T00:03:30;5.35;;;3.85;;
65753;SDS011;69207;47.502;18.940;2023-09-08T00:04:33;5.25;;;3.90;;
65753;SDS011;69207;47.502;18.940;2023-09-08T00:05:36;4.85;;;3.10;;
65753;SDS011;69207;47.502;18.940;2023-09-08T00:06:40;5.57;;;3.72;;
65753;SDS011;69207;47.502;18.940;2023-09-08T00:07:44;6.47;;;3.87;;
65753;SDS011;69207;47.502;18.940;2023-09-08T00:08:47;6.80;;;4.20;;
65753;SDS011;69207;47.502;18.940;2023-09-08T00:09:50;6.50;;;3.37;;
65753;SDS011;69207;47.502;18.940;2023-09-08T00:10:53;7.22;;;3.70;;
65753;SDS011;69207;47.502;18.940;2023-09-08T00:11:56;7.30;;;3.72;;
65753;SDS011;69207;47.502;18.940;2023-09-08T00:13:00;5.60;;;3.65;;
65753;SDS011;69207;47.502;18.940;2023-09-08T00:14:03;7.70;;;4.03;;
65753;SDS011;69207;47.502;18.940;2023-09-08T00:15:06;7.18;;;3.62;;
65753;SDS011;69207;47.502;18.940;2023-09-08T00:16:10;5.90;;;3.97;;
65753;SDS011;69207;47.502;18.940;2023-09-08T00:17:13;7.28;;;4.37;;
65753;SDS011;69207;47.502;18.940;2023-09-08T00:18:16;6.72;;;4.18;;
65753;SDS011;69207;47.502;18.940;2023-09-08T00:19:20;6.25;;;4.10;;
65753;SDS011;69207;47.502;18.940;2023-09-08T00:20:24;6.22;;;3.72;;
65753;SDS011;69207;47.502;18.940;2023-09-08T00:21:27;5.78;;;4.05;;
65753;SDS011;69207;47.502;18.940;2023-09-08T00:22:30;7.05;;;4.00;;
65753;SDS011;69207;47.502;18.940;2023-09-08T00:23:33;5.45;;;3.87;;
65753;SDS011;69207;47.502;18.940;2023-09-08T00:24:36;7.65;;;3.87;;
65753;SDS011;69207;47.502;18.940;2023-09-08T00:25:39;8.85;;;3.95;;
65753;SDS011;69207;47.502;18.940;2023-09-08T00:26:43;6.68;;;3.62;;
65753;SDS011;69207;47.502;18.940;2023-09-08T00:27:46;6.57;;;3.78;;
65753;SDS011;69207;47.502;18.940;2023-09-08T00:28:50;6.68;;;3.72;;
65753;SDS011;69207;47.502;18.940;2023-09-08T00:29:53;6.95;;;3.42;;
65753;SDS011;69207;47.502;18.940;2023-09-08T00:30:56;5.00;;;3.60;;
65753;SDS011;69207;47.502;18.940;2023-09-08T00:32:02;4.90;;;3.40;;
65753;SDS011;69207;47.502;18.940;2023-09-08T00:33:06;5.68;;;3.97;;
65753;SDS011;69207;47.502;18.940;2023-09-08T00:34:11;8.82;;;4.30;;
65753;SDS011;69207;47.502;18.940;2023-09-08T00:35:15;9.35;;;3.85;;
65753;SDS011;69207;47.502;18.940;2023-09-08T00:36:18;6.40;;;3.80;;
65753;SDS011;69207;47.502;18.940;2023-09-08T00:37:21;8.10;;;3.80;;
65753;SDS011;69207;47.502;18.940;2023-09-08T00:38:24;7.68;;;4.00;;
65753;SDS011;69207;47.502;18.940;2023-09-08T00:39:28;7.80;;;3.90;;
65753;SDS011;69207;47.502;18.940;2023-09-08T00:40:32;4.97;;;3.40;;
65753;SDS011;69207;47.502;18.940;2023-09-08T00:41:35;6.72;;;3.95;;
65753;SDS011;69207;47.502;18.940;2023-09-08T00:42:39;6.65;;;3.87;;
65753;SDS011;69207;47.502;18.940;2023-09-08T00:43:42;4.90;;;3.70;;
65753;SDS011;69207;47.502;18.940;2023-09-08T00:44:45;5.22;;;3.62;;
65753;SDS011;69207;47.502;18.940;2023-09-08T00:45:48;6.65;;;3.40;;
65753;SDS011;69207;47.502;18.940;2023-09-08T00:46:51;5.35;;;3.85;;
65753;SDS011;69207;47.502;18.940;2023-09-08T00:47:54;6.65;;;3.62;;
65753;SDS011;69207;47.502;18.940;2023-09-08T00:48:58;8.18;;;3.62;;
65753;SDS011;69207;47.502;18.940;2023-09-08T00:50:02;5.72;;;3.75;;
65753;SDS011;69207;47.502;18.940;2023-09-08T00:51:07;5.28;;;3.70;;
65753;SDS011;69207;47.502;18.940;2023-09-08T00:52:12;5.70;;;3.40;;
65753;SDS011;69207;47.502;18.940;2023-09-08T00:53:15;7.07;;;3.50;;
65753;SDS011;69207;47.502;18.940;2023-09-08T00:54:18;5.82;;;3.53;;
65753;SDS011;69207;47.502;18.940;2023-09-08T00:55:21;6.65;;;3.78;;
65753;SDS011;69207;47.502;18.940;2023-09-08T00:56:26;6.07;;;3.70;;
65753;SDS011;69207;47.502;18.940;2023-09-08T00:57:29;4.65;;;3.72;;
65753;SDS011;69207;47.502;18.940;2023-09-08T00:58:34;7.22;;;3.70;;
65753;SDS011;69207;47.502;18.940;2023-09-08T00:59:38;10.85;;;4.20;;
65753;SDS011;69207;47.502;18.940;2023-09-08T01:00:42;6.07;;;3.70;;
65753;SDS011;69207;47.502;18.940;2023-09-08T01:01:45;6.90;;;3.85;;
65753;SDS011;69207;47.502;18.940;2023-09-08T01:02:49;7.25;;;3.55;;
65753;SDS011;69207;47.502;18.940;2023-09-08T01:03:52;6.50;;;3.40;;
65753;SDS011;69207;47.502;18.940;2023-09-08T01:04:55;6.40;;;3.60;;
65753;SDS011;69207;47.502;18.940;2023-09-08T01:05:58;6.95;;;3.90;;
65753;SDS011;69207;47.502;18.940;2023-09-08T01:07:03;7.07;;;3.70;;
65753;SDS011;69207;47.502;18.940;2023-09-08T01:08:06;6.53;;;3.80;;
65753;SDS011;69207;47.502;18.940;2023-09-08T01:09:10;6.80;;;4.10;;
65753;SDS011;69207;47.502;18.940;2023-09-08T01:10:15;5.00;;;3.60;;
65753;SDS011;69207;47.502;18.940;2023-09-08T01:11:19;7.72;;;3.78;;
65753;SDS011;69207;47.502;18.940;2023-09-08T01:12:22;4.75;;;3.47;;
65753;SDS011;69207;47.502;18.940;2023-09-08T01:13:26;6.53;;;3.62;;
65753;SDS011;69207;47.502;18.940;2023-09-08T01:14:29;5.78;;;3.50;;
65753;SDS011;69207;47.502;18.940;2023-09-08T01:15:33;7.43;;;3.90;;
65753;SDS011;69207;47.502;18.940;2023-09-08T01:16:36;6.50;;;4.03;;
65753;SDS011;69207;47.502;18.940;2023-09-08T01:17:39;6.82;;;3.75;;
65753;SDS011;69207;47.502;18.940;2023-09-08T01:18:43;5.43;;;4.00;;
65753;SDS011;69207;47.502;18.940;2023-09-08T01:19:51;9.13;;;3.72;;
65753;SDS011;69207;47.502;18.940;2023-09-08T01:24:05;12.73;;;3.92;;
65753;SDS011;69207;47.502;18.940;2023-09-08T01:25:31;6.95;;;3.20;;
65753;SDS011;69207;47.502;18.940;2023-09-08T01:26:40;6.65;;;3.80;;
65753;SDS011;69207;47.502;18.940;2023-09-08T01:27:52;5.40;;;3.58;;
65753;SDS011;69207;47.502;18.940;2023-09-08T01:28:56;4.80;;;3.33;;
65753;SDS011;69207;47.502;18.940;2023-09-08T01:30:04;4.85;;;3.28;;
65753;SDS011;69207;47.502;18.940;2023-09-08T01:31:09;4.47;;;3.62;;
65753;SDS011;69207;47.502;18.940;2023-09-08T01:32:12;6.60;;;3.78;;
65753;SDS011;69207;47.502;18.940;2023-09-08T01:33:16;4.18;;;3.20;;
65753;SDS011;69207;47.502;18.940;2023-09-08T01:34:20;4.68;;;3.58;;
65753;SDS011;69207;47.502;18.940;2023-09-08T01:35:23;5.50;;;3.72;;
65753;SDS011;69207;47.502;18.940;2023-09-08T01:36:27;7.87;;;3.62;;
65753;SDS011;69207;47.502;18.940;2023-09-08T01:37:30;7.37;;;4.00;;
65753;SDS011;69207;47.502;18.940;2023-09-08T01:38:33;4.45;;;2.97;;
65753;SDS011;69207;47.502;18.940;2023-09-08T01:39:36;6.65;;;4.07;;
65753;SDS011;69207;47.502;18.940;2023-09-08T01:40:40;5.18;;;3.65;;
65753;SDS011;69207;47.502;18.940;2023-09-08T01:41:43;7.43;;;4.00;;
65753;SDS011;69207;47.502;18.940;2023-09-08T01:42:47;7.65;;;4.00;;
65753;SDS011;69207;47.502;18.940;2023-09-08T01:43:52;5.55;;;3.65;;
65753;SDS011;69207;47.502;18.940;2023-09-08T01:44:55;5.37;;;3.92;;
65753;SDS011;69207;47.502;18.940;2023-09-08T01:45:58;6.62;;;3.97;;
65753;SDS011;69207;47.502;18.940;2023-09-08T01:47:01;5.90;;;3.78;;
65753;SDS011;69207;47.502;18.940;2023-09-08T01:48:04;4.85;;;3.80;;
65753;SDS011;69207;47.502;18.940;2023-09-08T01:49:08;6.30;;;3.97;;
65753;SDS011;69207;47.502;18.940;2023-09-08T01:50:11;8.88;;;3.58;;
65753;SDS011;69207;47.502;18.940;2023-09-08T01:51:14;7.75;;;3.85;;
65753;SDS011;69207;47.502;18.940;2023-09-08T01:52:17;6.15;;;4.15;;
65753;SDS011;69207;47.502;18.940;2023-09-08T01:53:20;7.78;;;4.07;;
65753;SDS011;69207;47.502;18.940;2023-09-08T01:54:24;5.12;;;4.10;;
65753;SDS011;69207;47.502;18.940;2023-09-08T01:55:27;5.78;;;3.33;;
65753;SDS011;69207;47.502;18.940;2023-09-08T01:56:30;6.75;;;3.53;;
65753;SDS011;69207;47.502;18.940;2023-09-08T01:57:34;7.18;;;4.15;;
65753;SDS011;69207;47.502;18.940;2023-09-08T01:58:37;5.40;;;3.92;;
65753;SDS011;69207;47.502;18.940;2023-09-08T01:59:40;6.55;;;4.05;;
65753;SDS011;69207;47.502;18.940;2023-09-08T02:00:43;5.60;;;3.83;;
65753;SDS011;69207;47.502;18.940;2023-09-08T02:01:50;5.45;;;3.80;;
65753;SDS011;69207;47.502;18.940;2023-09-08T02:02:53;5.70;;;3.78;;
65753;SDS011;69207;47.502;18.940;2023-09-08T02:03:56;5.85;;;3.80;;
65753;SDS011;69207;47.502;18.940;2023-09-08T02:05:00;6.18;;;4.10;;
65753;SDS011;69207;47.502;18.940;2023-09-08T02:06:03;7.68;;;4.22;;
65753;SDS011;69207;47.502;18.940;2023-09-08T02:07:06;5.37;;;4.03;;
65753;SDS011;69207;47.502;18.940;2023-09-08T02:08:09;5.57;;;3.92;;
65753;SDS011;69207;47.502;18.940;2023-09-08T02:09:14;7.12;;;3.92;;
65753;SDS011;69207;47.502;18.940;2023-09-08T02:10:17;5.72;;;3.30;;
65753;SDS011;69207;47.502;18.940;2023-09-08T02:11:21;6.03;;;4.35;;
65753;SDS011;69207;47.502;18.940;2023-09-08T02:12:24;6.43;;;4.12;;
65753;SDS011;69207;47.502;18.940;2023-09-08T02:13:28;5.60;;;3.95;;
65753;SDS011;69207;47.502;18.940;2023-09-08T02:14:31;6.32;;;4.68;;
65753;SDS011;69207;47.502;18.940;2023-09-08T02:15:35;4.60;;;3.70;;
65753;SDS011;69207;47.502;18.940;2023-09-08T02:16:39;6.10;;;4.07;;
65753;SDS011;69207;47.502;18.940;2023-09-08T02:17:42;7.53;;;4.05;;
65753;SDS011;69207;47.502;18.940;2023-09-08T02:18:46;8.75;;;4.32;;
65753;SDS011;69207;47.502;18.940;2023-09-08T02:19:49;5.45;;;3.80;;
65753;SDS011;69207;47.502;18.940;2023-09-08T02:20:52;5.82;;;4.43;;
65753;SDS011;69207;47.502;18.940;2023-09-08T02:21:56;5.90;;;4.00;;
65753;SDS011;69207;47.502;18.940;2023-09-08T02:23:03;6.30;;;3.78;;
65753;SDS011;69207;47.502;18.940;2023-09-08T02:24:07;5.03;;;3.72;;
65753;SDS011;69207;47.502;18.940;2023-09-08T02:25:10;7.05;;;4.30;;
65753;SDS011;69207;47.502;18.940;2023-09-08T02:26:13;5.53;;;4.10;;
65753;SDS011;69207;47.502;18.940;2023-09-08T02:27:18;7.05;;;3.90;;
65753;SDS011;69207;47.502;18.940;2023-09-08T02:28:22;6.57;;;4.25;;
65753;SDS011;69207;47.502;18.940;2023-09-08T02:29:25;7.18;;;4.15;;
65753;SDS011;69207;47.502;18.940;2023-09-08T02:30:28;6.85;;;3.83;;
65753;SDS011;69207;47.502;18.940;2023-09-08T02:31:32;5.60;;;3.90;;
65753;SDS011;69207;47.502;18.940;2023-09-08T02:32:36;6.47;;;4.10;;
65753;SDS011;69207;47.502;18.940;2023-09-08T02:33:39;5.80;;;3.85;;
65753;SDS011;69207;47.502;18.940;2023-09-08T02:34:42;7.35;;;4.10;;
65753;SDS011;69207;47.502;18.940;2023-09-08T02:35:46;7.55;;;3.97;;
65753;SDS011;69207;47.502;18.940;2023-09-08T02:36:49;5.53;;;3.42;;
65753;SDS011;69207;47.502;18.940;2023-09-08T02:37:53;8.05;;;3.60;;
65753;SDS011;69207;47.502;18.940;2023-09-08T02:38:56;11.12;;;4.62;;
65753;SDS011;69207;47.502;18.940;2023-09-08T02:40:00;7.30;;;4.37;;
65753;SDS011;69207;47.502;18.940;2023-09-08T02:41:04;7.28;;;4.28;;
65753;SDS011;69207;47.502;18.940;2023-09-08T02:42:07;7.68;;;3.75;;
65753;SDS011;69207;47.502;18.940;2023-09-08T02:43:10;6.95;;;4.25;;
65753;SDS011;69207;47.502;18.940;2023-09-08T02:44:13;8.65;;;4.47;;
65753;SDS011;69207;47.502;18.940;2023-09-08T02:45:17;6.15;;;4.35;;
65753;SDS011;69207;47.502;18.940;2023-09-08T02:46:20;5.45;;;3.92;;
65753;SDS011;69207;47.502;18.940;2023-09-08T02:47:23;5.95;;;4.12;;
65753;SDS011;69207;47.502;18.940;2023-09-08T02:48:26;6.53;;;4.53;;
65753;SDS011;69207;47.502;18.940;2023-09-08T02:49:29;8.90;;;4.20;;
65753;SDS011;69207;47.502;18.940;2023-09-08T02:50:32;6.28;;;4.25;;
65753;SDS011;69207;47.502;18.940;2023-09-08T02:51:36;6.78;;;4.15;;
65753;SDS011;69207;47.502;18.940;2023-09-08T02:52:39;6.82;;;4.00;;
65753;SDS011;69207;47.502;18.940;2023-09-08T02:53:41;6.12;;;4.50;;
65753;SDS011;69207;47.502;18.940;2023-09-08T02:54:45;7.10;;;4.55;;
65753;SDS011;69207;47.502;18.940;2023-09-08T02:55:48;6.05;;;4.28;;
65753;SDS011;69207;47.502;18.940;2023-09-08T02:56:51;11.73;;;4.80;;
65753;SDS011;69207;47.502;18.940;2023-09-08T02:57:54;9.15;;;4.47;;
65753;SDS011;69207;47.502;18.940;2023-09-08T02:58:57;6.93;;;4.35;;
65753;SDS011;69207;47.502;18.940;2023-09-08T03:00:01;8.93;;;4.60;;
65753;SDS011;69207;47.502;18.940;2023-09-08T03:01:11;11.15;;;4.30;;
65753;SDS011;69207;47.502;18.940;2023-09-08T03:02:16;7.20;;;3.95;;
65753;SDS011;69207;47.502;18.940;2023-09-08T03:03:20;9.38;;;4.22;;
65753;SDS011;69207;47.502;18.940;2023-09-08T03:04:23;8.55;;;4.47;;
65753;SDS011;69207;47.502;18.940;2023-09-08T03:05:27;5.85;;;3.83;;
65753;SDS011;69207;47.502;18.940;2023-09-08T03:06:30;7.30;;;4.35;;
65753;SDS011;69207;47.502;18.940;2023-09-08T03:07:34;6.95;;;3.85;;
65753;SDS011;69207;47.502;18.940;2023-09-08T03:08:40;7.82;;;4.43;;
65753;SDS011;69207;47.502;18.940;2023-09-08T03:09:43;6.18;;;4.20;;
65753;SDS011;69207;47.502;18.940;2023-09-08T03:10:46;6.03;;;4.20;;
65753;SDS011;69207;47.502;18.940;2023-09-08T03:11:51;6.10;;;4.05;;
65753;SDS011;69207;47.502;18.940;2023-09-08T03:12:54;9.95;;;4.18;;
65753;SDS011;69207;47.502;18.940;2023-09-08T03:13:57;7.00;;;4.25;;
65753;SDS011;69207;47.502;18.940;2023-09-08T03:15:01;10.07;;;4.90;;
65753;SDS011;69207;47.502;18.940;2023-09-08T03:16:05;6.60;;;4.70;;
65753;SDS011;69207;47.502;18.940;2023-09-08T03:17:09;7.93;;;4.70;;
65753;SDS011;69207;47.502;18.940;2023-09-08T03:18:12;7.45;;;4.68;;
65753;SDS011;69207;47.502;18.940;2023-09-08T03:19:18;7.40;;;4.60;;
65753;SDS011;69207;47.502;18.940;2023-09-08T03:20:21;6.22;;;4.20;;
65753;SDS011;69207;47.502;18.940;2023-09-08T03:21:25;7.97;;;4.60;;
65753;SDS011;69207;47.502;18.940;2023-09-08T03:22:28;6.90;;;4.72;;
65753;SDS011;69207;47.502;18.940;2023-09-08T03:23:31;7.10;;;4.53;;
65753;SDS011;69207;47.502;18.940;2023-09-08T03:24:35;7.60;;;5.00;;
65753;SDS011;69207;47.502;18.940;2023-09-08T03:25:38;7.20;;;5.20;;
65753;SDS011;69207;47.502;18.940;2023-09-08T03:26:41;11.98;;;5.07;;
65753;SDS011;69207;47.502;18.940;2023-09-08T03:27:44;7.53;;;4.65;;
65753;SDS011;69207;47.502;18.940;2023-09-08T03:28:47;6.30;;;4.95;;
65753;SDS011;69207;47.502;18.940;2023-09-08T03:29:50;9.40;;;4.60;;
65753;SDS011;69207;47.502;18.940;2023-09-08T03:30:54;9.57;;;5.03;;
65753;SDS011;69207;47.502;18.940;2023-09-08T03:31:57;7.07;;;4.90;;
65753;SDS011;69207;47.502;18.940;2023-09-08T03:33:00;8.13;;;4.72;;
65753;SDS011;69207;47.502;18.940;2023-09-08T03:34:04;7.03;;;4.70;;
65753;SDS011;69207;47.502;18.940;2023-09-08T03:35:07;8.98;;;5.12;;
65753;SDS011;69207;47.502;18.940;2023-09-08T03:36:11;7.05;;;5.03;;
65753;SDS011;69207;47.502;18.940;2023-09-08T03:37:14;8.60;;;4.68;;
65753;SDS011;69207;47.502;18.940;2023-09-08T03:38:18;6.97;;;5.35;;
65753;SDS011;69207;47.502;18.940;2023-09-08T03:39:21;6.30;;;4.57;;
65753;SDS011;69207;47.502;18.940;2023-09-08T03:40:24;6.12;;;5.03;;
65753;SDS011;69207;47.502;18.940;2023-09-08T03:41:28;7.65;;;4.78;;
65753;SDS011;69207;47.502;18.940;2023-09-08T03:42:31;6.45;;;4.97;;
65753;SDS011;69207;47.502;18.940;2023-09-08T03:43:34;6.87;;;5.20;;
65753;SDS011;69207;47.502;18.940;2023-09-08T03:44:37;7.47;;;4.72;;
65753;SDS011;69207;47.502;18.940;2023-09-08T03:45:41;10.48;;;5.18;;
65753;SDS011;69207;47.502;18.940;2023-09-08T03:46:44;8.15;;;4.90;;
65753;SDS011;69207;47.502;18.940;2023-09-08T03:47:48;8.18;;;4.65;;
65753;SDS011;69207;47.502;18.940;2023-09-08T03:48:51;7.55;;;5.22;;
65753;SDS011;69207;47.502;18.940;2023-09-08T03:49:57;8.43;;;5.82;;
65753;SDS011;69207;47.502;18.940;2023-09-08T03:51:00;8.90;;;5.25;;
65753;SDS011;69207;47.502;18.940;2023-09-08T03:52:04;9.05;;;5.10;;
65753;SDS011;69207;47.502;18.940;2023-09-08T03:53:07;8.82;;;4.95;;
65753;SDS011;69207;47.502;18.940;2023-09-08T03:54:10;8.43;;;4.72;;
65753;SDS011;69207;47.502;18.940;2023-09-08T03:55:13;7.60;;;4.55;;
65753;SDS011;69207;47.502;18.940;2023-09-08T03:56:17;7.80;;;4.97;;
65753;SDS011;69207;47.502;18.940;2023-09-08T03:57:20;7.18;;;4.65;;
65753;SDS011;69207;47.502;18.940;2023-09-08T03:58:23;8.50;;;5.80;;
65753;SDS011;69207;47.502;18.940;2023-09-08T03:59:26;9.60;;;5.70;;
65753;SDS011;69207;47.502;18.940;2023-09-08T04:00:29;9.38;;;5.00;;
65753;SDS011;69207;47.502;18.940;2023-09-08T04:01:33;7.68;;;4.95;;
65753;SDS011;69207;47.502;18.940;2023-09-08T04:02:36;7.90;;;5.20;;
65753;SDS011;69207;47.502;18.940;2023-09-08T04:03:40;6.20;;;4.85;;
65753;SDS011;69207;47.502;18.940;2023-09-08T04:04:43;11.15;;;5.20;;
65753;SDS011;69207;47.502;18.940;2023-09-08T04:05:46;6.97;;;4.50;;
65753;SDS011;69207;47.502;18.940;2023-09-08T04:06:49;8.68;;;5.55;;
65753;SDS011;69207;47.502;18.940;2023-09-08T04:07:52;8.93;;;5.10;;
65753;SDS011;69207;47.502;18.940;2023-09-08T04:08:56;7.53;;;4.80;;
65753;SDS011;69207;47.502;18.940;2023-09-08T04:09:59;8.20;;;5.00;;
65753;SDS011;69207;47.502;18.940;2023-09-08T04:11:02;9.00;;;4.95;;
65753;SDS011;69207;47.502;18.940;2023-09-08T04:12:06;8.30;;;5.22;;
65753;SDS011;69207;47.502;18.940;2023-09-08T04:13:11;7.00;;;4.65;;
65753;SDS011;69207;47.502;18.940;2023-09-08T04:14:15;8.27;;;5.43;;
65753;SDS011;69207;47.502;18.940;2023-09-08T04:15:18;9.65;;;5.45;;
65753;SDS011;69207;47.502;18.940;2023-09-08T04:16:22;7.43;;;5.12;;
65753;SDS011;69207;47.502;18.940;2023-09-08T04:17:25;9.35;;;5.45;;
65753;SDS011;69207;47.502;18.940;2023-09-08T04:18:28;7.40;;;4.90;;
65753;SDS011;69207;47.502;18.940;2023-09-08T04:19:32;7.68;;;4.70;;
65753;SDS011;69207;47.502;18.940;2023-09-08T04:20:35;9.52;;;5.22;;
65753;SDS011;69207;47.502;18.940;2023-09-08T04:21:38;8.13;;;5.22;;
65753;SDS011;69207;47.502;18.940;2023-09-08T04:22:44;9.43;;;5.20;;
65753;SDS011;69207;47.502;18.940;2023-09-08T04:23:47;8.77;;;5.65;;
65753;SDS011;69207;47.502;18.940;2023-09-08T04:24:50;7.57;;;4.72;;
65753;SDS011;69207;47.502;18.940;2023-09-08T04:25:53;13.27;;;5.07;;
65753;SDS011;69207;47.502;18.940;2023-09-08T04:26:56;11.73;;;5.07;;
65753;SDS011;69207;47.502;18.940;2023-09-08T04:27:59;7.80;;;5.10;;
65753;SDS011;69207;47.502;18.940;2023-09-08T04:29:02;8.38;;;5.22;;
65753;SDS011;69207;47.502;18.940;2023-09-08T04:30:06;7.53;;;4.65;;
65753;SDS011;69207;47.502;18.940;2023-09-08T04:31:10;7.22;;;4.90;;
65753;SDS011;69207;47.502;18.940;2023-09-08T04:32:13;6.70;;;4.78;;
65753;SDS011;69207;47.502;18.940;2023-09-08T04:33:16;7.82;;;5.03;;
65753;SDS011;69207;47.502;18.940;2023-09-08T04:34:19;8.60;;;5.12;;
65753;SDS011;69207;47.502;18.940;2023-09-08T04:35:22;9.13;;;5.50;;
65753;SDS011;69207;47.502;18.940;2023-09-08T04:36:26;6.90;;;4.95;;
65753;SDS011;69207;47.502;18.940;2023-09-08T04:37:28;6.53;;;4.93;;
65753;SDS011;69207;47.502;18.940;2023-09-08T04:38:33;6.43;;;4.62;;
65753;SDS011;69207;47.502;18.940;2023-09-08T04:39:36;8.35;;;5.25;;
65753;SDS011;69207;47.502;18.940;2023-09-08T04:40:44;9.90;;;4.95;;
65753;SDS011;69207;47.502;18.940;2023-09-08T04:41:48;13.27;;;5.60;;
65753;SDS011;69207;47.502;18.940;2023-09-08T04:42:52;10.52;;;5.20;;
65753;SDS011;69207;47.502;18.940;2023-09-08T04:43:55;8.40;;;5.15;;
65753;SDS011;69207;47.502;18.940;2023-09-08T04:45:00;13.02;;;5.22;;
65753;SDS011;69207;47.502;18.940;2023-09-08T04:46:04;7.97;;;4.90;;
65753;SDS011;69207;47.502;18.940;2023-09-08T04:47:07;9.52;;;5.28;;
65753;SDS011;69207;47.502;18.940;2023-09-08T04:48:10;13.32;;;5.40;;
65753;SDS011;69207;47.502;18.940;2023-09-08T04:49:14;10.45;;;5.45;;
65753;SDS011;69207;47.502;18.940;2023-09-08T04:50:17;9.77;;;4.95;;
65753;SDS011;69207;47.502;18.940;2023-09-08T04:51:20;7.97;;;5.32;;
65753;SDS011;69207;47.502;18.940;2023-09-08T04:52:24;7.40;;;5.37;;
65753;SDS011;69207;47.502;18.940;2023-09-08T04:53:27;5.78;;;4.68;;
65753;SDS011;69207;47.502;18.940;2023-09-08T04:54:30;7.65;;;5.32;;
65753;SDS011;69207;47.502;18.940;2023-09-08T04:55:34;8.95;;;5.72;;
65753;SDS011;69207;47.502;18.940;2023-09-08T04:56:38;8.45;;;5.10;;
65753;SDS011;69207;47.502;18.940;2023-09-08T04:57:42;9.25;;;5.22;;
65753;SDS011;69207;47.502;18.940;2023-09-08T04:58:45;9.25;;;4.90;;
65753;SDS011;69207;47.502;18.940;2023-09-08T04:59:48;7.97;;;5.22;;
65753;SDS011;69207;47.502;18.940;2023-09-08T05:00:52;6.93;;;4.87;;
65753;SDS011;69207;47.502;18.940;2023-09-08T05:01:55;7.72;;;4.95;;
65753;SDS011;69207;47.502;18.940;2023-09-08T05:02:57;9.98;;;4.62;;
65753;SDS011;69207;47.502;18.940;2023-09-08T05:04:01;7.65;;;4.62;;
65753;SDS011;69207;47.502;18.940;2023-09-08T05:05:04;10.57;;;5.18;;
65753;SDS011;69207;47.502;18.940;2023-09-08T05:06:07;6.57;;;4.75;;
65753;SDS011;69207;47.502;18.940;2023-09-08T05:07:10;8.52;;;4.55;;
65753;SDS011;69207;47.502;18.940;2023-09-08T05:08:16;7.90;;;5.10;;
65753;SDS011;69207;47.502;18.940;2023-09-08T05:09:19;10.25;;;5.32;;
65753;SDS011;69207;47.502;18.940;2023-09-08T05:10:23;7.00;;;4.93;;
65753;SDS011;69207;47.502;18.940;2023-09-08T05:11:26;8.75;;;5.05;;
65753;SDS011;69207;47.502;18.940;2023-09-08T05:12:30;8.70;;;4.87;;
65753;SDS011;69207;47.502;18.940;2023-09-08T05:13:33;11.40;;;5.22;;
65753;SDS011;69207;47.502;18.940;2023-09-08T05:14:36;7.45;;;5.10;;
65753;SDS011;69207;47.502;18.940;2023-09-08T05:15:39;9.05;;;5.20;;
65753;SDS011;69207;47.502;18.940;2023-09-08T05:16:45;7.82;;;4.70;;
65753;SDS011;69207;47.502;18.940;2023-09-08T05:17:49;7.12;;;4.78;;
65753;SDS011;69207;47.502;18.940;2023-09-08T05:18:52;6.53;;;5.12;;
65753;SDS011;69207;47.502;18.940;2023-09-08T05:19:55;10.75;;;5.10;;
65753;SDS011;69207;47.502;18.940;2023-09-08T05:20:59;8.23;;;4.65;;
65753;SDS011;69207;47.502;18.940;2023-09-08T05:22:04;9.77;;;5.22;;
65753;SDS011;69207;47.502;18.940;2023-09-08T05:23:07;6.93;;;4.87;;
65753;SDS011;69207;47.502;18.940;2023-09-08T05:24:11;7.97;;;4.85;;
65753;SDS011;69207;47.502;18.940;2023-09-08T05:25:14;8.23;;;4.75;;
65753;SDS011;69207;47.502;18.940;2023-09-08T05:26:17;10.32;;;4.80;;
65753;SDS011;69207;47.502;18.940;2023-09-08T05:27:20;10.18;;;4.95;;
65753;SDS011;69207;47.502;18.940;2023-09-08T05:28:23;6.50;;;4.62;;
65753;SDS011;69207;47.502;18.940;2023-09-08T05:29:26;6.80;;;4.87;;
65753;SDS011;69207;47.502;18.940;2023-09-08T05:30:30;9.70;;;5.87;;
65753;SDS011;69207;47.502;18.940;2023-09-08T05:31:33;10.95;;;4.90;;
65753;SDS011;69207;47.502;18.940;2023-09-08T05:32:36;9.55;;;5.32;;
65753;SDS011;69207;47.502;18.940;2023-09-08T05:33:39;7.68;;;4.82;;
65753;SDS011;69207;47.502;18.940;2023-09-08T05:34:43;9.40;;;4.95;;
65753;SDS011;69207;47.502;18.940;2023-09-08T05:35:46;7.75;;;4.93;;
65753;SDS011;69207;47.502;18.940;2023-09-08T05:36:50;13.55;;;6.07;;
65753;SDS011;69207;47.502;18.940;2023-09-08T05:37:53;9.45;;;4.90;;
65753;SDS011;69207;47.502;18.940;2023-09-08T05:38:56;7.90;;;5.35;;
65753;SDS011;69207;47.502;18.940;2023-09-08T05:39:59;8.68;;;5.10;;
65753;SDS011;69207;47.502;18.940;2023-09-08T05:41:02;8.95;;;5.28;;
65753;SDS011;69207;47.502;18.940;2023-09-08T05:42:06;8.90;;;4.95;;
65753;SDS011;69207;47.502;18.940;2023-09-08T05:43:09;7.05;;;4.90;;
65753;SDS011;69207;47.502;18.940;2023-09-08T05:44:12;7.75;;;5.15;;
65753;SDS011;69207;47.502;18.940;2023-09-08T05:45:15;9.60;;;5.30;;
65753;SDS011;69207;47.502;18.940;2023-09-08T05:46:18;7.05;;;4.62;;
65753;SDS011;69207;47.502;18.940;2023-09-08T05:47:22;9.10;;;5.07;;
65753;SDS011;69207;47.502;18.940;2023-09-08T05:48:25;7.55;;;5.35;;
65753;SDS011;69207;47.502;18.940;2023-09-08T05:49:28;9.07;;;4.95;;
65753;SDS011;69207;47.502;18.940;2023-09-08T05:50:31;9.88;;;4.95;;
65753;SDS011;69207;47.502;18.940;2023-09-08T05:51:35;7.40;;;4.50;;
65753;SDS011;69207;47.502;18.940;2023-09-08T05:52:38;8.68;;;5.12;;
65753;SDS011;69207;47.502;18.940;2023-09-08T05:53:41;7.62;;;4.87;;
65753;SDS011;69207;47.502;18.940;2023-09-08T05:54:44;6.22;;;5.05;;
65753;SDS011;69207;47.502;18.940;2023-09-08T05:55:48;7.82;;;5.10;;
65753;SDS011;69207;47.502;18.940;2023-09-08T05:56:51;8.27;;;4.50;;
65753;SDS011;69207;47.502;18.940;2023-09-08T05:57:54;8.15;;;4.82;;
65753;SDS011;69207;47.502;18.940;2023-09-08T05:58:58;9.93;;;4.95;;
65753;SDS011;69207;47.502;18.940;2023-09-08T06:00:02;9.15;;;5.15;;
65753;SDS011;69207;47.502;18.940;2023-09-08T06:01:07;8.95;;;5.00;;
65753;SDS011;69207;47.502;18.940;2023-09-08T06:02:10;9.85;;;4.82;;
65753;SDS011;69207;47.502;18.940;2023-09-08T06:03:13;6.40;;;4.78;;
65753;SDS011;69207;47.502;18.940;2023-09-08T06:04:17;6.93;;;4.32;;
65753;SDS011;69207;47.502;18.940;2023-09-08T06:05:20;7.35;;;4.90;;
65753;SDS011;69207;47.502;18.940;2023-09-08T06:06:23;9.13;;;4.93;;
65753;SDS011;69207;47.502;18.940;2023-09-08T06:07:26;9.18;;;5.50;;
65753;SDS011;69207;47.502;18.940;2023-09-08T06:08:29;6.95;;;4.97;;
65753;SDS011;69207;47.502;18.940;2023-09-08T06:09:32;10.20;;;5.12;;
65753;SDS011;69207;47.502;18.940;2023-09-08T06:10:37;10.48;;;5.68;;
65753;SDS011;69207;47.502;18.940;2023-09-08T06:11:41;11.75;;;5.22;;
65753;SDS011;69207;47.502;18.940;2023-09-08T06:12:44;7.80;;;5.40;;
65753;SDS011;69207;47.502;18.940;2023-09-08T06:13:48;9.40;;;5.03;;
65753;SDS011;69207;47.502;18.940;2023-09-08T06:14:51;6.45;;;4.95;;
65753;SDS011;69207;47.502;18.940;2023-09-08T06:15:54;6.68;;;4.60;;
65753;SDS011;69207;47.502;18.940;2023-09-08T06:16:57;7.35;;;4.93;;
65753;SDS011;69207;47.502;18.940;2023-09-08T06:18:02;7.87;;;4.28;;
65753;SDS011;69207;47.502;18.940;2023-09-08T06:19:06;8.80;;;5.00;;
65753;SDS011;69207;47.502;18.940;2023-09-08T06:20:09;7.28;;;4.72;;